Phoenix, Maryland
Current Conditions -  °F | °C
As of 10:50 AM on Friday 31 Oct 2014 (Local Time) from KMTN Reporting Station
Broken Clouds Broken Clouds  
Wind Chill: 52°   Ceiling: 6000
Heat Index: 52°   Visibility: 10mi
Dew Point: 37°   Wind: 3mph
Humidity: 58%   Direction: 10°N
Pressure: 30.01"   Gusts: NA
Location:  39.52°N, 76.62°W
Report Text: KMTN 311450Z 01003KT 10SM BKN060 11/03 A3001
Loading
Personal Weather Stations






























Interactive Weather Map
Tropical Storm Tracking
New forecast layout! Learn more

10-Day Weather Forecast

Advertisements
Track Severe Weather on mobile